Terminal Aerodrome Forecast
Issued by NWS

Home | Current Version | Previous Version | Text Only | Print | Product List | Glossary On
Versions: 1 2 3 4 5 6 7 8 9 10 11 12
000
FTUS43 KFGF 181700
TAFTVF
TAF
KTVF 181720Z 1818/1918 13014G19KT P6SM SCT070
     FM182100 13023G31KT P6SM BKN060
     FM190300 13020KT P6SM -SHRA OVC050
     FM191300 20010KT P6SM BKN025
     FM191600 24013KT P6SM BKN050
      AMD LTD TO CLD VIS AND WIND=

USA.gov is the U.S. government's official web portal to all federal, state and local government web resources and services.